createdAt,value
2023-05-10T00:01:19.628Z,91.50
2023-05-10T00:03:46.452Z,91.90
2023-05-10T00:06:13.290Z,92.10
2023-05-10T00:08:39.954Z,92.90
2023-05-10T00:11:06.647Z,93.50
2023-05-10T00:13:33.521Z,93.80
2023-05-10T00:16:00.432Z,94.30
2023-05-10T00:18:27.099Z,95.00
2023-05-10T00:20:53.760Z,95.60
2023-05-10T00:23:20.380Z,95.90
2023-05-10T00:25:47.095Z,95.90
2023-05-10T00:28:13.745Z,95.80
2023-05-10T00:30:40.406Z,96.40
2023-05-10T00:33:07.090Z,96.70
2023-05-10T00:35:34.038Z,96.50
2023-05-10T00:38:00.802Z,96.90
2023-05-10T00:40:27.572Z,97.60
2023-05-10T00:42:54.243Z,98.00
2023-05-10T00:45:21.031Z,98.60
2023-05-10T00:47:47.741Z,99.00
2023-05-10T00:50:15.706Z,99.50
2023-05-10T00:52:43.659Z,99.60
2023-05-10T00:55:13.018Z,99.80
2023-05-10T00:57:40.487Z,99.90
2023-05-10T01:00:07.797Z,99.90
2023-05-10T01:02:36.432Z,99.90
2023-05-10T01:05:04.630Z,99.90
2023-05-10T01:07:31.543Z,99.90
2023-05-10T01:09:58.810Z,99.90
2023-05-10T01:12:26.219Z,99.90
2023-05-10T01:14:53.218Z,99.90
2023-05-10T01:17:20.536Z,99.90
2023-05-10T01:19:47.273Z,99.90
2023-05-10T01:22:37.438Z,99.90
2023-05-10T01:25:25.498Z,99.90
2023-05-10T01:28:24.636Z,99.90
2023-05-10T01:31:04.695Z,99.90
2023-05-10T01:33:44.010Z,99.90
2023-05-10T01:36:27.207Z,99.90
2023-05-10T01:39:10.219Z,99.90
2023-05-10T01:41:52.382Z,99.90
2023-05-10T01:44:31.216Z,99.90
2023-05-10T01:47:18.171Z,99.90
2023-05-10T01:49:51.352Z,99.90
2023-05-10T01:52:20.776Z,99.90
2023-05-10T01:54:57.035Z,99.90
2023-05-10T01:57:27.571Z,99.90
2023-05-10T01:59:55.968Z,99.90
2023-05-10T02:02:25.204Z,99.90
2023-05-10T02:04:52.459Z,99.90
2023-05-10T02:07:19.866Z,99.90
2023-05-10T02:09:48.971Z,99.90
2023-05-10T02:12:17.266Z,99.90
2023-05-10T02:14:45.118Z,99.90
2023-05-10T02:17:13.199Z,99.90
2023-05-10T02:19:42.692Z,99.90
2023-05-10T02:22:10.700Z,99.90
2023-05-10T02:24:38.541Z,99.90
2023-05-10T02:27:06.195Z,99.90
2023-05-10T02:29:34.400Z,99.90
2023-05-10T02:32:02.019Z,99.90
2023-05-10T02:34:29.177Z,99.90
2023-05-10T02:36:57.324Z,99.90
2023-05-10T02:39:25.550Z,99.90
2023-05-10T02:41:53.473Z,99.90
2023-05-10T02:44:21.489Z,99.90
2023-05-10T02:46:49.021Z,99.90
2023-05-10T08:03:00.948Z,92.40
2023-05-10T08:05:27.766Z,92.90
2023-05-10T08:07:54.404Z,93.00
2023-05-10T08:10:21.104Z,94.20
2023-05-10T08:12:47.904Z,90.50
2023-05-10T08:15:14.711Z,89.90
2023-05-10T08:17:41.552Z,90.60
2023-05-10T08:20:08.889Z,87.90
2023-05-10T08:22:35.626Z,91.00
2023-05-10T08:25:02.337Z,89.20
2023-05-10T08:27:29.034Z,89.90
2023-05-10T08:29:55.707Z,88.80
2023-05-10T08:32:22.441Z,86.80
2023-05-10T08:34:49.135Z,86.80
2023-05-10T08:37:15.881Z,87.60
2023-05-10T08:39:42.650Z,87.60
2023-05-10T08:42:10.801Z,86.70
2023-05-10T08:44:38.150Z,83.40
2023-05-10T08:47:09.316Z,83.60
2023-05-10T08:49:38.029Z,82.40
2023-05-10T08:52:06.860Z,82.50
2023-05-10T08:54:34.678Z,85.30
2023-05-10T08:57:01.986Z,79.50
2023-05-10T08:59:29.438Z,78.70
2023-05-10T09:01:59.881Z,78.00
2023-05-10T09:04:28.864Z,81.00
2023-05-10T09:06:55.922Z,82.50
2023-05-10T09:09:24.015Z,73.90
2023-05-10T09:11:50.728Z,74.00
2023-05-10T09:14:18.445Z,74.10
2023-05-10T09:16:45.379Z,77.00
2023-05-10T09:19:12.405Z,74.30
2023-05-10T09:21:39.459Z,71.90
2023-05-10T09:24:09.973Z,73.00
2023-05-10T09:26:46.342Z,74.20
2023-05-10T09:29:14.196Z,64.70
2023-05-10T09:31:53.033Z,65.10
2023-05-10T09:34:22.012Z,60.00
2023-05-10T09:36:53.382Z,62.30
2023-05-10T09:39:20.491Z,64.30
2023-05-10T09:41:48.010Z,66.80
2023-05-10T09:44:19.614Z,66.30
2023-05-10T09:46:51.777Z,63.70
2023-05-10T09:49:18.292Z,59.90
2023-05-10T09:51:44.919Z,62.00
2023-05-10T09:54:16.860Z,63.80
2023-05-10T09:56:44.039Z,72.70
2023-05-10T09:59:12.634Z,68.50
2023-05-10T10:01:40.241Z,68.70
2023-05-10T10:04:10.349Z,60.20
2023-05-10T10:06:41.598Z,62.60
2023-05-10T10:09:09.082Z,62.30
2023-05-10T10:11:37.416Z,59.30
2023-05-10T10:14:04.524Z,59.90
2023-05-10T10:16:32.270Z,64.20
2023-05-10T10:18:59.587Z,62.20
2023-05-10T10:21:26.616Z,61.30
2023-05-10T10:23:54.166Z,62.70
2023-05-10T10:26:22.375Z,65.60
2023-05-10T10:29:35.810Z,59.60
2023-05-10T10:32:19.357Z,58.20
2023-05-10T10:34:46.536Z,59.80
2023-05-10T10:37:13.469Z,57.00
2023-05-10T10:39:40.273Z,55.70
2023-05-10T10:42:07.098Z,53.70
2023-05-10T10:44:37.360Z,52.40
2023-05-10T10:47:14.000Z,52.00
2023-05-10T10:49:46.806Z,58.40
2023-05-10T10:52:34.213Z,53.40
2023-05-10T10:55:25.904Z,52.70
2023-05-10T10:58:05.484Z,54.00
2023-05-10T11:00:33.937Z,54.80
2023-05-10T11:03:07.323Z,58.30
2023-05-10T11:05:38.851Z,50.20
2023-05-10T11:08:30.561Z,48.20
2023-05-10T11:11:00.303Z,49.30
2023-05-10T11:13:42.516Z,49.60
2023-05-10T11:16:12.435Z,49.30
2023-05-10T11:18:39.363Z,47.70
2023-05-10T11:21:06.298Z,50.90
2023-05-10T11:23:48.352Z,46.20
2023-05-10T11:26:15.470Z,46.60
2023-05-10T11:28:49.845Z,42.80
2023-05-10T11:31:18.275Z,42.40
2023-05-10T11:33:53.120Z,42.70
2023-05-10T11:36:24.653Z,41.80
2023-05-10T11:38:51.345Z,47.00
2023-05-10T11:41:19.748Z,47.00
2023-05-10T11:43:54.564Z,49.70
2023-05-10T11:46:24.363Z,48.40
2023-05-10T11:48:53.165Z,46.50
2023-05-10T11:51:25.006Z,46.60
2023-05-10T11:53:54.820Z,46.20
2023-05-10T11:56:21.688Z,45.60
2023-05-10T11:58:55.477Z,44.80
2023-05-10T12:01:23.036Z,43.30
2023-05-10T12:03:51.340Z,45.10
2023-05-10T12:06:19.393Z,44.10
2023-05-10T12:08:47.663Z,44.30
2023-05-10T12:11:16.386Z,45.70
2023-05-10T12:13:47.464Z,47.60
2023-05-10T12:16:22.731Z,48.80
2023-05-10T12:18:50.353Z,50.40
2023-05-10T12:21:16.988Z,50.40
2023-05-10T12:23:46.160Z,51.70
2023-05-10T12:26:12.817Z,53.80
2023-05-10T12:28:40.480Z,54.00
2023-05-10T12:31:07.764Z,55.20
2023-05-10T12:33:43.423Z,59.80
2023-05-10T12:36:17.318Z,63.20
2023-05-10T12:38:48.601Z,65.90
2023-05-10T12:41:17.696Z,67.10
2023-05-10T12:43:44.959Z,71.30
2023-05-10T12:46:13.718Z,74.90
2023-05-10T12:48:42.271Z,77.70
2023-05-10T12:51:10.582Z,82.40
2023-05-10T12:53:37.693Z,85.10
2023-05-10T12:56:04.626Z,88.10
2023-05-10T12:58:36.051Z,89.50
2023-05-10T13:01:03.452Z,90.70
2023-05-10T13:03:30.332Z,89.70
2023-05-10T13:05:57.163Z,90.70
2023-05-10T13:08:23.988Z,91.80
2023-05-10T13:10:50.710Z,91.90
2023-05-10T13:13:17.485Z,93.00
2023-05-10T13:15:44.193Z,92.10
2023-05-10T13:18:10.963Z,91.50
2023-05-10T13:20:37.956Z,92.20
2023-05-10T13:23:04.604Z,92.70
2023-05-10T13:25:31.725Z,93.50
2023-05-10T13:27:58.482Z,90.10
2023-05-10T13:30:25.097Z,88.70
2023-05-10T13:32:51.941Z,87.60
2023-05-10T13:35:18.827Z,79.70
2023-05-10T13:37:45.598Z,77.70
2023-05-10T13:40:12.642Z,72.70
2023-05-10T13:42:43.103Z,74.00
2023-05-10T13:45:10.695Z,76.50
2023-05-10T13:47:37.416Z,77.30
2023-05-10T13:50:04.597Z,72.20
2023-05-10T13:52:31.238Z,73.50
2023-05-10T13:54:58.315Z,75.50
2023-05-10T13:57:25.083Z,74.70
2023-05-10T13:59:52.411Z,74.60
2023-05-10T14:02:19.111Z,77.40
2023-05-10T14:04:45.894Z,75.90
2023-05-10T14:07:12.650Z,78.40
2023-05-10T14:09:39.513Z,81.20
2023-05-10T14:12:06.328Z,81.50
2023-05-10T14:14:33.028Z,83.70
2023-05-10T14:17:00.317Z,83.70
2023-05-10T14:19:28.100Z,83.30
2023-05-10T14:21:54.865Z,82.90
2023-05-10T14:24:21.657Z,83.80
2023-05-10T14:26:48.276Z,84.70
2023-05-10T14:29:14.970Z,85.70
2023-05-10T14:31:41.701Z,87.40
2023-05-10T14:34:08.490Z,89.10
2023-05-10T14:36:35.123Z,89.10
2023-05-10T14:39:01.894Z,88.40
2023-05-10T14:41:28.616Z,83.70
2023-05-10T14:43:55.242Z,82.80
2023-05-10T14:46:21.939Z,84.10
2023-05-10T14:48:48.602Z,85.70
2023-05-10T14:51:15.291Z,86.80
2023-05-10T14:53:42.036Z,88.70
2023-05-10T14:56:08.683Z,88.10
2023-05-10T14:58:35.294Z,89.20
2023-05-10T15:01:02.188Z,90.60
2023-05-10T15:03:29.634Z,93.30
2023-05-10T15:05:58.598Z,95.20
2023-05-10T15:08:28.824Z,94.70
2023-05-10T15:10:56.919Z,94.80
2023-05-10T15:13:23.745Z,95.50
2023-05-10T15:15:50.788Z,96.80
2023-05-10T15:18:17.800Z,97.70
2023-05-10T15:20:44.550Z,98.50
2023-05-10T15:23:11.188Z,98.80
2023-05-10T15:25:38.518Z,99.00
2023-05-10T15:28:05.920Z,98.80
2023-05-10T15:30:32.670Z,98.60
2023-05-10T15:32:59.598Z,98.70
2023-05-10T15:35:27.452Z,98.50
2023-05-10T15:37:54.295Z,98.50
2023-05-10T15:40:21.306Z,99.30
2023-05-10T15:42:48.401Z,99.10
2023-05-10T15:45:16.371Z,99.40
2023-05-10T15:47:43.431Z,99.70
2023-05-10T15:50:11.541Z,99.40
2023-05-10T15:52:38.396Z,99.10
2023-05-10T15:55:12.597Z,98.30
2023-05-10T15:57:41.055Z,98.00
2023-05-10T16:00:09.175Z,97.00
2023-05-10T16:02:36.282Z,96.90
2023-05-10T16:05:03.562Z,96.80
2023-05-10T16:07:30.386Z,96.80
2023-05-10T16:09:57.039Z,96.70
2023-05-10T16:12:23.793Z,96.00
2023-05-10T16:14:50.536Z,95.40
2023-05-10T16:17:17.406Z,95.50
2023-05-10T16:19:44.172Z,95.70
2023-05-10T16:22:10.952Z,96.20
2023-05-10T16:24:37.646Z,96.70
2023-05-10T16:27:04.337Z,97.30
2023-05-10T16:29:32.119Z,97.10
2023-05-10T16:31:58.829Z,96.30
2023-05-10T16:34:25.922Z,95.80
2023-05-10T16:36:52.744Z,96.20
2023-05-10T16:39:19.424Z,96.20
2023-05-10T16:41:46.168Z,95.60
2023-05-10T16:44:12.916Z,95.80
2023-05-10T16:46:39.746Z,96.20
2023-05-10T16:49:06.928Z,96.30
2023-05-10T16:51:33.576Z,96.60
2023-05-10T16:54:00.267Z,96.90
2023-05-10T16:56:27.047Z,96.90
2023-05-10T16:58:54.091Z,96.80
2023-05-10T17:01:21.338Z,96.50
2023-05-10T17:03:48.808Z,96.50
2023-05-10T17:06:16.239Z,96.50
2023-05-10T17:08:43.232Z,96.50
2023-05-10T17:11:09.979Z,96.40
2023-05-10T17:13:36.681Z,96.70
2023-05-10T17:16:03.825Z,96.90
2023-05-10T17:18:30.806Z,97.00
2023-05-10T17:20:57.617Z,97.00
2023-05-10T17:23:24.302Z,97.10
2023-05-10T17:25:51.129Z,97.20
2023-05-10T17:28:17.892Z,97.30
2023-05-10T17:30:44.545Z,97.50
2023-05-10T17:33:11.343Z,97.50
2023-05-10T17:35:38.054Z,97.20
2023-05-10T17:38:04.767Z,97.20
2023-05-10T17:40:32.025Z,97.10
2023-05-10T17:42:58.788Z,97.00
2023-05-10T17:45:26.384Z,97.00
2023-05-10T17:47:53.116Z,97.10
2023-05-10T17:50:19.911Z,97.50
2023-05-10T17:52:46.646Z,97.70
2023-05-10T17:55:13.387Z,97.70
2023-05-10T17:57:40.112Z,98.30
2023-05-10T18:00:09.321Z,98.30
2023-05-10T18:02:36.942Z,98.30
2023-05-10T18:05:04.734Z,98.40
2023-05-10T18:07:31.731Z,98.80
2023-05-10T18:09:58.772Z,98.90
2023-05-10T18:12:25.618Z,99.50
2023-05-10T18:14:52.367Z,99.70
2023-05-10T18:17:19.101Z,99.40
2023-05-10T18:19:45.866Z,99.50
2023-05-10T18:22:12.676Z,99.40
2023-05-10T18:24:40.283Z,99.90
2023-05-10T18:27:08.857Z,99.40
2023-05-10T18:29:36.318Z,99.70
2023-05-10T18:32:03.216Z,99.60
2023-05-10T18:34:29.922Z,99.90
2023-05-10T18:36:57.039Z,99.90
2023-05-10T18:39:25.032Z,99.90
2023-05-10T18:41:52.058Z,99.90
2023-05-10T18:44:19.176Z,99.90
2023-05-10T18:46:46.457Z,99.90
2023-05-10T18:49:13.391Z,99.90
2023-05-10T18:51:40.486Z,99.90
2023-05-10T18:54:07.395Z,99.90
2023-05-10T18:56:34.353Z,99.90
2023-05-10T18:59:01.220Z,99.90
2023-05-10T19:01:28.264Z,99.90
